Orlando International Airport
KMCO : now visible

Airfield :











YOU CAN JOIN US ON...

 
LOGIN :

Register | Disclaimer

   EN    FR    IT 

 









Legend :    VFR   Marginal VFR   IFR   Intensive IFR   Very Intensive IFR
Visi :
Ceiling :
>= 8 km
>= 3000ft
5 to 8 km
1000 to 3000 ft
1500m to 5 km
500 to 1000 ft
800 to 1500m
200 to 500 ft
< 800m
< 200 ft
Symbols :   Thunderstorms  Fog  Heavy snow  Heavy precipitations  Wind > 20 kt







- Airport Elevation : 96 ft
- IATA code : MCO


KMCO - Orlando International

CURRENT METAR :
  • 160653Z 31007KT 10SM SCT015 SCT250 25/23 A2992 RMK AO2 SLP131 T02500233

EXPIRED METARs :
  • 160553Z 31006KT 10SM FEW014 FEW250 26/23 A2993 RMK AO2 SLP134 T02560233 10278 20256 55000
  • 160453Z 33010KT 10SM FEW030 FEW250 26/23 A2993 RMK AO2 SLP133 T02610233 403220244
  • 160353Z 32008KT 10SM FEW035 SCT250 26/23 A2993 RMK AO2 SLP135 T02610233

TAF KMCO
Valid from the 16 at 06:00 until the 17 at 12:00 UTC


160533Z 1606/1712 33010KT P6SM FEW030 FEW250
FM161400 34011KT P6SM SCT020 SCT040
FM161800 35012G18KT P6SM VCSH SCT035 SCT050
FM170000 36010KT P6SM FEW025
No reported NOTAMs for that airfield.



MET'MAP, your aeronautical weather chart ! - Copyright ORBIFLY December 2007 - Disclaimer

ORBIFLY MET'MAP TEAM :

Programming & Development : Alexandra Zaïnal
Concept & Development : Baudouin d'Aumeries
Co-Development & Prog : Marc-Olivier Méhu
Technical & hardware support : Manuel Goepfert

Contact : metmap@orbifly.com




SOURCES & CREDITS :

   NOAA       Earth
Advisory